createdAt,value
2022-08-05T00:00:16.144Z,1.90
2022-08-05T00:02:44.077Z,1.98
2022-08-05T00:05:27.485Z,1.83
2022-08-05T00:08:34.245Z,2.05
2022-08-05T00:10:52.771Z,1.80
2022-08-05T00:13:19.803Z,1.83
2022-08-05T00:15:58.190Z,1.75
2022-08-05T00:18:27.349Z,1.95
2022-08-05T00:20:58.219Z,2.22
2022-08-05T00:23:44.693Z,2.20
2022-08-05T00:26:12.183Z,2.90
2022-08-05T00:28:38.950Z,2.45
2022-08-05T00:31:07.618Z,2.10
2022-08-05T00:34:55.262Z,2.75
2022-08-05T00:37:09.986Z,2.47
2022-08-05T00:39:13.799Z,2.58
2022-08-05T00:41:51.449Z,2.45
2022-08-05T00:44:21.388Z,2.92
2022-08-05T00:46:53.922Z,3.22
2022-08-05T00:49:27.964Z,2.50
2022-08-05T00:51:59.843Z,2.65
2022-08-05T00:54:28.002Z,3.40
2022-08-05T00:57:14.808Z,3.00
2022-08-05T01:00:01.869Z,3.53
2022-08-05T01:02:50.218Z,3.15
2022-08-05T01:05:37.100Z,3.42
2022-08-05T01:11:37.213Z,4.43
2022-08-05T01:14:11.795Z,3.67
2022-08-05T01:17:00.047Z,3.63
2022-08-05T01:20:00.815Z,3.63
2022-08-05T01:22:40.440Z,3.65
2022-08-05T01:25:39.830Z,3.35
2022-08-05T01:28:43.928Z,3.83
2022-08-05T01:31:31.656Z,3.28
2022-08-05T01:34:19.816Z,2.42
2022-08-05T01:36:55.067Z,3.22
2022-08-05T01:39:36.105Z,3.00
2022-08-05T01:42:14.382Z,3.47
2022-08-05T01:44:44.081Z,3.35
2022-08-05T01:47:14.859Z,3.45
2022-08-05T01:50:00.048Z,3.60
2022-08-05T01:52:29.990Z,3.22
2022-08-05T01:55:00.590Z,2.75
2022-08-05T01:58:13.738Z,3.30
2022-08-05T02:00:18.682Z,3.17
2022-08-05T02:03:07.353Z,2.75
2022-08-05T02:05:53.586Z,2.92
2022-08-05T02:08:29.677Z,2.95
2022-08-05T02:11:33.773Z,2.67
2022-08-05T02:14:47.075Z,2.92
2022-08-05T02:18:27.998Z,2.70
2022-08-05T02:20:22.190Z,3.10
2022-08-05T02:22:57.055Z,2.75
2022-08-05T02:25:33.150Z,3.22
2022-08-05T02:28:02.233Z,2.72
2022-08-05T02:30:51.812Z,3.13
2022-08-05T02:33:24.175Z,2.60
2022-08-05T02:35:59.078Z,2.97
2022-08-05T02:38:35.216Z,2.90
2022-08-05T02:41:14.794Z,2.20
2022-08-05T02:44:06.320Z,2.42
2022-08-05T02:46:35.447Z,2.35
2022-08-05T02:49:02.867Z,2.83
2022-08-05T02:52:03.750Z,2.80
2022-08-05T02:54:34.514Z,3.00
2022-08-05T02:57:10.410Z,2.65
2022-08-05T02:59:54.135Z,2.20
2022-08-05T03:02:27.595Z,2.75
2022-08-05T03:04:57.208Z,2.72
2022-08-05T03:08:00.525Z,2.47
2022-08-05T03:10:15.729Z,2.20
2022-08-05T03:12:51.945Z,2.25
2022-08-05T03:15:20.263Z,2.15
2022-08-05T03:17:46.717Z,2.35
2022-08-05T03:20:13.583Z,2.67
2022-08-05T03:22:44.266Z,3.00
2022-08-05T03:25:33.241Z,2.50
2022-08-05T03:28:08.182Z,3.10
2022-08-05T03:30:35.910Z,2.65
2022-08-05T03:33:05.847Z,2.70
2022-08-05T03:35:33.724Z,2.80
2022-08-05T03:38:01.543Z,2.53
2022-08-05T03:40:32.353Z,2.65
2022-08-05T03:43:01.439Z,2.55
2022-08-05T03:45:55.120Z,3.45
2022-08-05T03:48:25.214Z,3.28
2022-08-05T03:50:59.160Z,2.80
2022-08-05T03:56:46.494Z,3.60
2022-08-05T03:59:47.192Z,3.00
2022-08-05T04:02:38.977Z,3.33
2022-08-05T04:05:12.355Z,3.83
2022-08-05T04:07:58.277Z,3.28
2022-08-05T04:10:32.023Z,3.08
2022-08-05T04:12:59.259Z,3.10
2022-08-05T04:15:27.736Z,2.83
2022-08-05T04:18:03.241Z,2.60
2022-08-05T04:20:29.820Z,2.67
2022-08-05T04:22:58.249Z,2.88
2022-08-05T04:25:57.829Z,2.10
2022-08-05T04:28:12.825Z,2.20
2022-08-05T04:30:39.542Z,2.95
2022-08-05T04:33:06.235Z,1.92
2022-08-05T04:36:15.615Z,2.35
2022-08-05T04:38:20.778Z,2.40
2022-08-05T04:40:50.641Z,1.77
2022-08-05T04:45:55.047Z,2.25
2022-08-05T04:48:27.695Z,1.98
2022-08-05T04:51:03.236Z,2.08
2022-08-05T04:53:36.569Z,2.20
2022-08-05T04:56:33.742Z,2.28
2022-08-05T04:58:53.839Z,2.20
2022-08-05T05:02:05.676Z,2.38
2022-08-05T05:04:06.810Z,2.45
2022-08-05T05:06:40.753Z,1.80
2022-08-05T05:09:14.354Z,2.00
2022-08-05T05:11:55.579Z,2.67
2022-08-05T05:14:31.569Z,2.25
2022-08-05T05:17:01.982Z,2.22
2022-08-05T05:19:36.352Z,2.40
2022-08-05T05:22:24.452Z,2.10
2022-08-05T05:24:57.593Z,2.47
2022-08-05T05:27:45.015Z,1.88
2022-08-05T05:30:29.247Z,2.28
2022-08-05T05:33:00.540Z,2.25
2022-08-05T05:35:37.657Z,2.20
2022-08-05T05:38:08.969Z,2.20
2022-08-05T05:40:42.538Z,2.35
2022-08-05T05:43:15.159Z,2.30
2022-08-05T05:45:54.585Z,2.27
2022-08-05T05:48:27.604Z,2.63
2022-08-05T05:50:54.540Z,3.03
2022-08-05T05:53:22.735Z,3.13
2022-08-05T05:55:51.492Z,2.60
2022-08-05T05:58:31.578Z,2.50
2022-08-05T06:01:12.664Z,2.75
2022-08-05T06:04:00.684Z,2.10
2022-08-05T06:06:30.827Z,1.92
2022-08-05T06:11:24.640Z,2.13
2022-08-05T06:13:53.953Z,2.20
2022-08-05T06:16:28.691Z,1.90
2022-08-05T06:19:00.267Z,2.00
2022-08-05T06:24:11.427Z,2.53
2022-08-05T06:26:52.251Z,2.17
2022-08-05T06:29:42.932Z,2.33
2022-08-05T06:32:25.493Z,2.35
2022-08-05T06:34:59.203Z,2.10
2022-08-05T06:37:56.424Z,1.90
2022-08-05T06:40:21.072Z,2.20
2022-08-05T06:42:51.669Z,1.70
2022-08-05T06:45:44.730Z,1.80
2022-08-05T06:48:47.376Z,1.67
2022-08-05T06:50:55.819Z,1.77
2022-08-05T06:53:28.343Z,1.80
2022-08-05T06:55:59.987Z,1.60
2022-08-05T06:58:29.863Z,1.75
2022-08-05T07:01:03.586Z,1.70
2022-08-05T07:03:32.926Z,1.83
2022-08-05T07:06:05.374Z,2.10
2022-08-05T07:08:40.205Z,2.15
2022-08-05T07:11:08.545Z,1.83
2022-08-05T07:14:00.770Z,1.77
2022-08-05T07:17:59.875Z,2.05
2022-08-05T07:22:27.801Z,2.20
2022-08-05T07:24:58.233Z,1.85
2022-08-05T07:27:27.765Z,2.05
2022-08-05T07:30:22.945Z,2.25
2022-08-05T07:32:55.054Z,2.25
2022-08-05T07:35:56.649Z,1.92
2022-08-05T07:38:08.289Z,1.85
2022-08-05T07:40:39.058Z,1.80
2022-08-05T07:43:14.584Z,2.00
2022-08-05T07:45:57.273Z,2.00
2022-08-05T07:49:03.076Z,1.83
2022-08-05T07:51:23.350Z,2.08
2022-08-05T07:53:58.352Z,1.67
2022-08-05T07:57:00.645Z,1.30
2022-08-05T07:59:11.298Z,1.80
2022-08-05T08:01:41.536Z,1.58
2022-08-05T08:04:23.002Z,1.50
2022-08-05T08:07:07.078Z,1.80
2022-08-05T08:09:33.842Z,1.67
2022-08-05T08:12:09.053Z,1.55
2022-08-05T08:14:42.562Z,1.55
2022-08-05T08:17:20.461Z,1.60
2022-08-05T08:20:42.795Z,1.55
2022-08-05T08:22:35.137Z,1.73
2022-08-05T08:25:02.726Z,1.40
2022-08-05T08:27:39.874Z,1.40
2022-08-05T08:30:29.936Z,1.95
2022-08-05T08:32:58.332Z,1.67
2022-08-05T08:35:29.027Z,1.80
2022-08-05T08:38:01.832Z,1.63
2022-08-05T08:40:29.806Z,1.77
2022-08-05T08:42:58.333Z,2.03
2022-08-05T08:45:49.520Z,1.45
2022-08-05T08:48:36.075Z,1.27
2022-08-05T08:52:01.853Z,1.80
2022-08-05T08:53:53.561Z,1.50
2022-08-05T08:56:22.192Z,1.60
2022-08-05T08:58:50.557Z,1.67
2022-08-05T09:01:18.763Z,1.70
2022-08-05T09:03:54.270Z,1.90
2022-08-05T09:06:24.221Z,1.55
2022-08-05T09:08:55.439Z,1.60
2022-08-05T09:11:51.473Z,1.50
2022-08-05T09:14:54.475Z,1.30
2022-08-05T09:16:55.219Z,1.60
2022-08-05T09:19:24.722Z,1.50
2022-08-05T09:22:22.686Z,2.10
2022-08-05T09:24:44.691Z,2.10
2022-08-05T09:28:05.940Z,1.85
2022-08-05T09:30:17.702Z,1.92
2022-08-05T09:32:51.393Z,1.70
2022-08-05T09:35:26.817Z,1.70
2022-08-05T09:38:12.772Z,2.13
2022-08-05T09:40:51.840Z,1.42
2022-08-05T09:43:40.858Z,1.48
2022-08-05T09:46:27.985Z,1.27
2022-08-05T09:49:08.015Z,1.30
2022-08-05T09:51:43.135Z,1.10
2022-08-05T09:54:11.247Z,1.20
2022-08-05T09:56:39.017Z,1.00
2022-08-05T09:59:17.152Z,1.73
2022-08-05T10:01:46.554Z,1.10
2022-08-05T10:04:16.176Z,1.20
2022-08-05T10:06:59.394Z,1.17
2022-08-05T10:09:29.443Z,1.58
2022-08-05T10:12:31.047Z,1.10
2022-08-05T10:15:21.672Z,1.20
2022-08-05T10:18:06.651Z,1.27
2022-08-05T10:20:36.528Z,1.10
2022-08-05T10:23:04.455Z,1.20
2022-08-05T10:25:35.953Z,1.10
2022-08-05T10:28:12.807Z,1.30
2022-08-05T10:32:54.146Z,1.50
2022-08-05T10:33:36.012Z,1.10
2022-08-05T10:36:05.096Z,1.00
2022-08-05T10:38:33.715Z,1.58
2022-08-05T10:41:46.537Z,1.40
2022-08-05T10:44:18.957Z,1.30
2022-08-05T10:46:53.968Z,1.27
2022-08-05T10:49:27.207Z,1.60
2022-08-05T10:52:02.639Z,1.35
2022-08-05T10:55:03.821Z,1.35
2022-08-05T10:57:32.100Z,1.38
2022-08-05T11:00:29.220Z,1.60
2022-08-05T11:03:23.652Z,1.50
2022-08-05T11:06:14.967Z,1.30
2022-08-05T11:09:16.484Z,1.30
2022-08-05T11:11:53.172Z,1.20
2022-08-05T11:14:57.351Z,1.17
2022-08-05T11:17:57.745Z,1.15
2022-08-05T11:20:37.244Z,1.40
2022-08-05T11:24:02.655Z,1.40
2022-08-05T11:26:28.076Z,1.38
2022-08-05T11:29:02.379Z,1.58
2022-08-05T11:31:51.920Z,1.40
2022-08-05T11:34:38.981Z,1.30
2022-08-05T11:37:06.304Z,1.40
2022-08-05T11:40:00.390Z,1.65
2022-08-05T11:42:38.040Z,1.58
2022-08-05T11:45:14.464Z,1.52
2022-08-05T11:47:55.169Z,1.60
2022-08-05T11:50:22.788Z,2.00
2022-08-05T11:52:52.099Z,1.58
2022-08-05T11:55:21.021Z,1.40
2022-08-05T11:58:11.012Z,1.52
2022-08-05T12:00:38.133Z,1.60
2022-08-05T12:03:28.406Z,1.55
2022-08-05T12:06:02.049Z,1.70
2022-08-05T12:08:28.861Z,1.30
2022-08-05T12:11:05.483Z,1.40
2022-08-05T12:13:49.712Z,1.33
2022-08-05T12:16:27.170Z,1.20
2022-08-05T12:18:55.870Z,1.25
2022-08-05T12:21:26.781Z,1.30
2022-08-05T12:24:08.321Z,1.40
2022-08-05T12:26:39.382Z,1.42
2022-08-05T12:29:16.356Z,1.20
2022-08-05T12:31:53.099Z,1.10
2022-08-05T12:34:28.192Z,1.30
2022-08-05T12:36:57.105Z,1.67
2022-08-05T12:39:28.111Z,1.50
2022-08-05T12:42:09.424Z,1.73
2022-08-05T12:44:42.203Z,1.40
2022-08-05T12:47:12.487Z,1.42
2022-08-05T12:50:04.561Z,1.30
2022-08-05T12:52:39.759Z,1.40
2022-08-05T12:55:26.273Z,1.20
2022-08-05T12:58:49.311Z,1.73
2022-08-05T13:02:02.215Z,1.48
2022-08-05T13:03:38.870Z,1.48
2022-08-05T13:06:10.485Z,1.35
2022-08-05T13:08:38.809Z,1.60
2022-08-05T13:11:07.699Z,1.50
2022-08-05T13:14:06.742Z,1.73
2022-08-05T13:16:27.685Z,1.35
2022-08-05T13:18:57.915Z,1.90
2022-08-05T13:21:28.588Z,1.33
2022-08-05T13:24:06.208Z,1.45
2022-08-05T13:26:35.358Z,1.63
2022-08-05T13:29:02.000Z,1.38
2022-08-05T13:31:33.948Z,1.38
2022-08-05T13:34:21.029Z,1.40
2022-08-05T13:36:52.761Z,1.50
2022-08-05T13:40:13.234Z,1.48
2022-08-05T13:42:06.275Z,1.45
2022-08-05T13:44:32.824Z,1.20
2022-08-05T13:47:08.514Z,1.40
2022-08-05T13:49:35.985Z,1.15
2022-08-05T13:52:14.553Z,1.58
2022-08-05T13:54:41.688Z,1.45
2022-08-05T13:57:12.396Z,0.90
2022-08-05T13:59:57.309Z,1.52
2022-08-05T14:02:26.458Z,1.27
2022-08-05T14:05:11.901Z,1.50
2022-08-05T14:08:00.480Z,1.38
2022-08-05T14:10:30.983Z,0.90
2022-08-05T14:12:58.706Z,1.45
2022-08-05T14:16:05.640Z,1.30
2022-08-05T14:18:15.033Z,1.40
2022-08-05T14:20:47.914Z,1.05
2022-08-05T14:25:58.567Z,1.23
2022-08-05T14:28:28.241Z,1.60
2022-08-05T14:30:55.921Z,1.40
2022-08-05T14:33:23.880Z,1.23
2022-08-05T14:35:52.034Z,1.50
2022-08-05T14:38:32.385Z,1.55
2022-08-05T14:41:06.206Z,1.25
2022-08-05T14:44:00.122Z,1.25
2022-08-05T14:46:28.562Z,1.58
2022-08-05T14:48:56.459Z,1.40
2022-08-05T14:51:24.378Z,1.50
2022-08-05T14:54:26.656Z,1.63
2022-08-05T14:56:44.104Z,1.60
2022-08-05T14:59:13.154Z,1.50
2022-08-05T15:01:49.008Z,1.60
2022-08-05T15:04:20.422Z,1.45
2022-08-05T15:06:50.037Z,1.38
2022-08-05T15:09:52.510Z,1.75
2022-08-05T15:12:09.451Z,1.65
2022-08-05T15:14:48.314Z,2.30
2022-08-05T15:17:47.303Z,2.00
2022-08-05T15:20:04.915Z,2.25
2022-08-05T15:22:31.496Z,2.38
2022-08-05T15:24:59.092Z,2.28
2022-08-05T15:27:26.039Z,2.70
2022-08-05T15:29:54.323Z,2.38
2022-08-05T15:32:27.378Z,2.38
2022-08-05T15:34:56.621Z,2.70
2022-08-05T15:38:08.498Z,2.67
2022-08-05T15:40:59.775Z,3.00
2022-08-05T15:43:07.928Z,3.08
2022-08-05T15:45:38.571Z,3.28
2022-08-05T15:48:05.749Z,3.88
2022-08-05T15:50:33.625Z,3.75
2022-08-05T15:53:04.126Z,4.60
2022-08-05T15:56:02.350Z,4.10
2022-08-05T15:58:19.102Z,4.35
2022-08-05T16:00:50.681Z,5.10
2022-08-05T16:03:30.149Z,7.10
2022-08-05T16:05:59.323Z,6.30
2022-08-05T16:08:30.398Z,7.50
2022-08-05T16:10:57.919Z,7.82
2022-08-05T16:13:34.339Z,7.50
2022-08-05T16:16:04.716Z,7.20
2022-08-05T16:18:35.073Z,8.68
2022-08-05T16:21:18.579Z,7.78
2022-08-05T16:23:53.908Z,7.88
2022-08-05T16:26:26.483Z,7.60
2022-08-05T16:28:55.270Z,6.90
2022-08-05T16:31:22.382Z,6.40
2022-08-05T16:33:49.823Z,7.18
2022-08-05T16:36:20.442Z,6.90
2022-08-05T16:38:54.931Z,7.93
2022-08-05T16:41:21.724Z,7.45
2022-08-05T16:44:09.665Z,6.97
2022-08-05T16:46:41.151Z,6.13
2022-08-05T16:49:08.984Z,6.95
2022-08-05T16:51:42.750Z,6.60
2022-08-05T16:54:24.046Z,5.80
2022-08-05T16:56:53.999Z,5.35
2022-08-05T16:59:20.570Z,5.28
2022-08-05T17:01:54.478Z,4.70
2022-08-05T17:04:26.147Z,4.82
2022-08-05T17:06:55.237Z,4.57
2022-08-05T17:09:22.896Z,5.32
2022-08-05T17:11:56.111Z,4.60
2022-08-05T17:14:36.707Z,4.78
2022-08-05T17:17:05.820Z,3.83
2022-08-05T17:19:32.303Z,3.88
2022-08-05T17:22:00.929Z,3.80
2022-08-05T17:24:38.562Z,3.22
2022-08-05T17:27:09.051Z,3.95
2022-08-05T17:29:41.004Z,3.95
2022-08-05T17:32:11.405Z,4.05
2022-08-05T17:34:39.031Z,3.70
2022-08-05T17:37:29.466Z,3.38
2022-08-05T17:39:55.786Z,3.70
2022-08-05T17:44:56.520Z,3.22
2022-08-05T17:47:23.646Z,3.20
2022-08-05T17:49:59.899Z,3.45
2022-08-05T17:52:32.408Z,3.00
2022-08-05T17:55:00.131Z,3.00
2022-08-05T17:57:27.796Z,2.80
2022-08-05T18:00:03.224Z,2.70
2022-08-05T18:02:31.655Z,2.40
2022-08-05T18:04:58.767Z,2.25
2022-08-05T18:07:25.310Z,1.77
2022-08-05T18:10:02.172Z,2.15
2022-08-05T18:12:36.828Z,1.80
2022-08-05T18:15:04.873Z,1.73
2022-08-05T18:18:00.830Z,1.70
2022-08-05T18:20:19.311Z,1.38
2022-08-05T18:22:57.448Z,1.45
2022-08-05T18:25:24.998Z,1.30
2022-08-05T18:27:52.515Z,1.23
2022-08-05T18:30:19.549Z,1.27
2022-08-05T18:32:53.212Z,1.13
2022-08-05T18:35:20.972Z,1.27
2022-08-05T18:38:07.886Z,1.27
2022-08-05T18:41:57.092Z,1.20
2022-08-05T18:43:21.457Z,1.17
2022-08-05T18:45:49.672Z,1.20
2022-08-05T18:48:31.641Z,1.48
2022-08-05T18:52:04.883Z,1.57
2022-08-05T18:54:05.733Z,1.75
2022-08-05T18:56:33.023Z,2.13
2022-08-05T18:59:01.635Z,2.13
2022-08-05T19:01:47.297Z,2.13
2022-08-05T19:04:14.380Z,1.80
2022-08-05T19:06:50.746Z,1.83
2022-08-05T19:09:17.240Z,1.52
2022-08-05T19:11:59.517Z,1.60
2022-08-05T19:14:59.313Z,1.73
2022-08-05T19:17:16.387Z,1.55
2022-08-05T19:19:46.845Z,1.75
2022-08-05T19:22:17.112Z,1.80
2022-08-05T19:24:54.423Z,1.80
2022-08-05T19:27:24.550Z,1.52
2022-08-05T19:29:57.126Z,1.17
2022-08-05T19:32:26.263Z,1.50
2022-08-05T19:37:35.047Z,1.48
2022-08-05T19:40:13.061Z,1.35
2022-08-05T19:42:41.783Z,1.60
2022-08-05T19:45:27.547Z,1.63
2022-08-05T19:47:59.780Z,1.65
2022-08-05T19:50:26.516Z,2.20
2022-08-05T19:52:52.944Z,2.10
2022-08-05T19:56:14.733Z,1.60
2022-08-05T19:58:28.208Z,1.73
2022-08-05T20:00:53.028Z,1.25
2022-08-05T20:03:19.500Z,1.88
2022-08-05T20:05:51.487Z,1.42
2022-08-05T20:08:19.032Z,1.67
2022-08-05T20:10:49.747Z,1.55
2022-08-05T20:13:17.473Z,1.65
2022-08-05T20:15:51.819Z,1.65
2022-08-05T20:18:32.808Z,1.90
2022-08-05T20:21:01.879Z,1.05
2022-08-05T20:23:39.472Z,1.88
2022-08-05T20:26:17.807Z,1.60
2022-08-05T20:28:47.803Z,1.90
2022-08-05T20:31:16.726Z,1.60
2022-08-05T20:33:44.469Z,1.17
2022-08-05T20:36:11.814Z,1.27
2022-08-05T20:38:54.166Z,1.40
2022-08-05T20:41:27.028Z,1.33
2022-08-05T20:43:58.762Z,1.20
2022-08-05T20:46:27.204Z,1.17
2022-08-05T20:48:53.750Z,1.50
2022-08-05T20:51:21.316Z,1.20
2022-08-05T20:53:56.913Z,1.10
2022-08-05T20:56:28.691Z,1.17
2022-08-05T20:59:00.135Z,1.13
2022-08-05T21:01:41.278Z,1.00
2022-08-05T21:04:10.555Z,1.10
2022-08-05T21:06:38.251Z,1.17
2022-08-05T21:09:14.542Z,1.10
2022-08-05T21:12:10.553Z,1.10
2022-08-05T21:14:29.227Z,1.10
2022-08-05T21:17:01.816Z,1.20
2022-08-05T21:19:29.853Z,1.35
2022-08-05T21:22:14.630Z,1.20
2022-08-05T21:24:44.428Z,1.10
2022-08-05T21:27:15.861Z,1.00
2022-08-05T21:29:43.249Z,1.13
2022-08-05T21:32:15.046Z,1.30
2022-08-05T21:34:46.449Z,1.17
2022-08-05T21:37:33.021Z,1.08
2022-08-05T21:39:59.472Z,1.20
2022-08-05T21:42:41.139Z,1.20
2022-08-05T21:45:11.551Z,1.10
2022-08-05T21:47:56.018Z,1.02
2022-08-05T21:50:24.727Z,0.95
2022-08-05T21:52:51.204Z,1.23
2022-08-05T21:56:04.140Z,0.77
2022-08-05T21:58:05.795Z,1.10
2022-08-05T22:00:32.546Z,1.20
2022-08-05T22:02:59.634Z,0.90
2022-08-05T22:05:27.225Z,1.40
2022-08-05T22:07:58.855Z,1.38
2022-08-05T22:10:28.745Z,1.20
2022-08-05T22:13:58.831Z,0.98
2022-08-05T22:16:02.532Z,1.20
2022-08-05T22:18:33.978Z,1.25
2022-08-05T22:21:00.782Z,1.10
2022-08-05T22:26:53.928Z,1.25
2022-08-05T22:29:26.709Z,1.02
2022-08-05T22:31:59.715Z,1.20
2022-08-05T22:34:30.332Z,1.00
2022-08-05T22:36:58.500Z,1.30
2022-08-05T22:39:33.303Z,1.25
2022-08-05T22:42:10.590Z,1.25
2022-08-05T22:44:39.998Z,1.55
2022-08-05T22:47:06.847Z,1.40
2022-08-05T22:50:19.663Z,1.10
2022-08-05T22:52:32.261Z,1.13
2022-08-05T22:55:00.908Z,1.23
2022-08-05T22:57:27.457Z,1.15
2022-08-05T23:00:03.335Z,1.40
2022-08-05T23:02:32.983Z,1.30
2022-08-05T23:05:01.985Z,1.20
2022-08-05T23:07:32.062Z,1.35
2022-08-05T23:10:02.123Z,0.90
2022-08-05T23:12:32.700Z,1.05
2022-08-05T23:15:01.370Z,1.08
2022-08-05T23:17:34.514Z,1.10
2022-08-05T23:20:15.497Z,1.05
2022-08-05T23:22:47.127Z,1.20
2022-08-05T23:25:17.427Z,1.05
2022-08-05T23:28:01.774Z,1.30
2022-08-05T23:30:29.151Z,1.10
2022-08-05T23:32:57.747Z,1.05
2022-08-05T23:35:28.441Z,1.20
2022-08-05T23:38:00.969Z,1.15
2022-08-05T23:40:27.621Z,1.30
2022-08-05T23:42:54.169Z,1.42
2022-08-05T23:45:20.849Z,1.50
2022-08-05T23:47:50.437Z,1.40
2022-08-05T23:50:20.498Z,1.20
2022-08-05T23:52:49.711Z,1.10
2022-08-05T23:55:17.827Z,1.30
2022-08-05T23:57:44.350Z,1.20
